sensor_id;sensor_type;location;lat;lon;timestamp;P1;durP1;ratioP1;P2;durP2;ratioP2
12852;SDS011;6495;51.808;7.478;2023-07-13T00:01:14;4.78;;;1.83;;
12852;SDS011;6495;51.808;7.478;2023-07-13T00:03:44;4.35;;;2.00;;
12852;SDS011;6495;51.808;7.478;2023-07-13T00:06:12;4.80;;;1.90;;
12852;SDS011;6495;51.808;7.478;2023-07-13T00:08:41;4.43;;;2.10;;
12852;SDS011;6495;51.808;7.478;2023-07-13T00:11:09;1.95;;;1.70;;
12852;SDS011;6495;51.808;7.478;2023-07-13T00:13:38;3.75;;;2.00;;
12852;SDS011;6495;51.808;7.478;2023-07-13T00:16:07;4.15;;;1.92;;
12852;SDS011;6495;51.808;7.478;2023-07-13T00:18:38;4.22;;;1.80;;
12852;SDS011;6495;51.808;7.478;2023-07-13T00:21:07;1.88;;;1.55;;
12852;SDS011;6495;51.808;7.478;2023-07-13T00:23:36;2.67;;;1.55;;
12852;SDS011;6495;51.808;7.478;2023-07-13T00:26:08;2.10;;;1.75;;
12852;SDS011;6495;51.808;7.478;2023-07-13T00:28:39;3.75;;;1.52;;
12852;SDS011;6495;51.808;7.478;2023-07-13T00:31:08;3.90;;;1.88;;
12852;SDS011;6495;51.808;7.478;2023-07-13T00:33:39;2.53;;;1.83;;
12852;SDS011;6495;51.808;7.478;2023-07-13T00:36:08;4.00;;;1.95;;
12852;SDS011;6495;51.808;7.478;2023-07-13T00:38:38;3.55;;;1.75;;
12852;SDS011;6495;51.808;7.478;2023-07-13T00:41:07;3.60;;;1.83;;
12852;SDS011;6495;51.808;7.478;2023-07-13T00:43:36;4.70;;;1.90;;
12852;SDS011;6495;51.808;7.478;2023-07-13T00:46:15;4.38;;;1.90;;
12852;SDS011;6495;51.808;7.478;2023-07-13T00:48:50;2.65;;;1.73;;
12852;SDS011;6495;51.808;7.478;2023-07-13T00:51:24;3.67;;;1.95;;
12852;SDS011;6495;51.808;7.478;2023-07-13T00:54:04;4.72;;;1.90;;
12852;SDS011;6495;51.808;7.478;2023-07-13T00:56:37;2.35;;;1.92;;
12852;SDS011;6495;51.808;7.478;2023-07-13T00:59:08;5.57;;;2.13;;
12852;SDS011;6495;51.808;7.478;2023-07-13T01:01:39;3.88;;;1.95;;
12852;SDS011;6495;51.808;7.478;2023-07-13T01:04:09;3.30;;;2.55;;
12852;SDS011;6495;51.808;7.478;2023-07-13T01:06:39;3.80;;;2.28;;
12852;SDS011;6495;51.808;7.478;2023-07-13T01:09:11;2.38;;;1.85;;
12852;SDS011;6495;51.808;7.478;2023-07-13T01:11:40;4.30;;;2.30;;
12852;SDS011;6495;51.808;7.478;2023-07-13T01:14:09;4.28;;;2.22;;
12852;SDS011;6495;51.808;7.478;2023-07-13T01:16:37;3.80;;;2.50;;
12852;SDS011;6495;51.808;7.478;2023-07-13T01:19:14;2.45;;;2.20;;
12852;SDS011;6495;51.808;7.478;2023-07-13T01:22:04;2.45;;;2.22;;
12852;SDS011;6495;51.808;7.478;2023-07-13T01:24:38;2.45;;;2.25;;
12852;SDS011;6495;51.808;7.478;2023-07-13T01:27:09;4.47;;;2.38;;
12852;SDS011;6495;51.808;7.478;2023-07-13T01:29:39;3.47;;;2.40;;
12852;SDS011;6495;51.808;7.478;2023-07-13T01:32:13;5.25;;;2.42;;
12852;SDS011;6495;51.808;7.478;2023-07-13T01:34:49;5.05;;;2.70;;
12852;SDS011;6495;51.808;7.478;2023-07-13T01:37:22;4.85;;;2.17;;
12852;SDS011;6495;51.808;7.478;2023-07-13T01:39:52;3.83;;;2.40;;
12852;SDS011;6495;51.808;7.478;2023-07-13T01:42:20;5.97;;;2.45;;
12852;SDS011;6495;51.808;7.478;2023-07-13T01:44:49;4.47;;;2.38;;
12852;SDS011;6495;51.808;7.478;2023-07-13T01:47:17;4.50;;;2.38;;
12852;SDS011;6495;51.808;7.478;2023-07-13T01:49:45;3.95;;;2.40;;
12852;SDS011;6495;51.808;7.478;2023-07-13T01:52:14;6.10;;;2.13;;
12852;SDS011;6495;51.808;7.478;2023-07-13T01:54:43;4.25;;;2.22;;
12852;SDS011;6495;51.808;7.478;2023-07-13T01:57:12;6.75;;;2.70;;
12852;SDS011;6495;51.808;7.478;2023-07-13T01:59:40;4.43;;;2.25;;
12852;SDS011;6495;51.808;7.478;2023-07-13T02:02:08;4.50;;;2.40;;
12852;SDS011;6495;51.808;7.478;2023-07-13T02:04:37;2.88;;;1.95;;
12852;SDS011;6495;51.808;7.478;2023-07-13T02:07:05;2.72;;;2.10;;
12852;SDS011;6495;51.808;7.478;2023-07-13T02:09:35;4.03;;;2.00;;
12852;SDS011;6495;51.808;7.478;2023-07-13T02:12:06;2.47;;;2.15;;
12852;SDS011;6495;51.808;7.478;2023-07-13T02:14:35;8.07;;;1.98;;
12852;SDS011;6495;51.808;7.478;2023-07-13T02:17:03;4.10;;;2.13;;
12852;SDS011;6495;51.808;7.478;2023-07-13T02:19:32;3.20;;;2.15;;
12852;SDS011;6495;51.808;7.478;2023-07-13T02:22:00;4.35;;;2.20;;
12852;SDS011;6495;51.808;7.478;2023-07-13T02:24:29;3.60;;;2.33;;
12852;SDS011;6495;51.808;7.478;2023-07-13T02:26:57;2.20;;;1.90;;
12852;SDS011;6495;51.808;7.478;2023-07-13T02:29:27;3.00;;;2.30;;
12852;SDS011;6495;51.808;7.478;2023-07-13T02:31:55;3.47;;;2.15;;
12852;SDS011;6495;51.808;7.478;2023-07-13T02:34:23;4.20;;;2.15;;
12852;SDS011;6495;51.808;7.478;2023-07-13T02:36:52;3.97;;;2.10;;
12852;SDS011;6495;51.808;7.478;2023-07-13T02:39:20;4.95;;;1.90;;
12852;SDS011;6495;51.808;7.478;2023-07-13T02:41:48;4.38;;;2.13;;
12852;SDS011;6495;51.808;7.478;2023-07-13T02:44:17;2.70;;;1.90;;
12852;SDS011;6495;51.808;7.478;2023-07-13T02:46:46;3.50;;;1.95;;
12852;SDS011;6495;51.808;7.478;2023-07-13T02:49:15;3.00;;;1.98;;
12852;SDS011;6495;51.808;7.478;2023-07-13T02:51:43;2.20;;;1.80;;
12852;SDS011;6495;51.808;7.478;2023-07-13T02:54:11;3.72;;;2.08;;
12852;SDS011;6495;51.808;7.478;2023-07-13T02:56:40;2.70;;;1.83;;
12852;SDS011;6495;51.808;7.478;2023-07-13T02:59:09;2.28;;;1.83;;
12852;SDS011;6495;51.808;7.478;2023-07-13T03:01:38;5.57;;;1.83;;
12852;SDS011;6495;51.808;7.478;2023-07-13T03:04:08;5.13;;;1.85;;
12852;SDS011;6495;51.808;7.478;2023-07-13T03:06:37;2.45;;;1.83;;
12852;SDS011;6495;51.808;7.478;2023-07-13T03:09:05;3.25;;;2.13;;
12852;SDS011;6495;51.808;7.478;2023-07-13T03:11:37;3.58;;;1.90;;
12852;SDS011;6495;51.808;7.478;2023-07-13T03:14:26;2.90;;;1.98;;
12852;SDS011;6495;51.808;7.478;2023-07-13T03:16:55;4.82;;;1.83;;
12852;SDS011;6495;51.808;7.478;2023-07-13T03:19:28;4.05;;;1.83;;
12852;SDS011;6495;51.808;7.478;2023-07-13T03:21:56;2.60;;;1.83;;
12852;SDS011;6495;51.808;7.478;2023-07-13T03:24:25;4.90;;;1.92;;
12852;SDS011;6495;51.808;7.478;2023-07-13T03:26:55;3.60;;;1.63;;
12852;SDS011;6495;51.808;7.478;2023-07-13T03:29:23;2.17;;;1.83;;
12852;SDS011;6495;51.808;7.478;2023-07-13T03:31:52;2.83;;;2.05;;
12852;SDS011;6495;51.808;7.478;2023-07-13T03:34:22;3.28;;;1.85;;
12852;SDS011;6495;51.808;7.478;2023-07-13T03:36:53;2.67;;;1.95;;
12852;SDS011;6495;51.808;7.478;2023-07-13T03:39:22;4.72;;;2.20;;
12852;SDS011;6495;51.808;7.478;2023-07-13T03:41:53;3.83;;;2.00;;
12852;SDS011;6495;51.808;7.478;2023-07-13T03:44:22;3.20;;;1.88;;
12852;SDS011;6495;51.808;7.478;2023-07-13T03:46:55;2.38;;;1.75;;
12852;SDS011;6495;51.808;7.478;2023-07-13T03:49:24;4.68;;;2.20;;
12852;SDS011;6495;51.808;7.478;2023-07-13T03:51:54;5.30;;;1.98;;
12852;SDS011;6495;51.808;7.478;2023-07-13T03:54:22;4.25;;;1.88;;
12852;SDS011;6495;51.808;7.478;2023-07-13T03:56:51;2.58;;;1.60;;
12852;SDS011;6495;51.808;7.478;2023-07-13T03:59:21;3.42;;;1.67;;
12852;SDS011;6495;51.808;7.478;2023-07-13T04:01:50;5.43;;;1.55;;
12852;SDS011;6495;51.808;7.478;2023-07-13T04:04:19;2.03;;;1.50;;
12852;SDS011;6495;51.808;7.478;2023-07-13T04:06:47;2.60;;;1.60;;
12852;SDS011;6495;51.808;7.478;2023-07-13T04:09:17;5.28;;;1.75;;
12852;SDS011;6495;51.808;7.478;2023-07-13T04:11:45;7.15;;;1.90;;
12852;SDS011;6495;51.808;7.478;2023-07-13T04:14:13;5.47;;;2.10;;
12852;SDS011;6495;51.808;7.478;2023-07-13T04:16:42;4.22;;;1.70;;
12852;SDS011;6495;51.808;7.478;2023-07-13T04:19:12;3.97;;;1.80;;
12852;SDS011;6495;51.808;7.478;2023-07-13T04:21:41;4.78;;;1.67;;
12852;SDS011;6495;51.808;7.478;2023-07-13T04:24:10;5.75;;;1.63;;
12852;SDS011;6495;51.808;7.478;2023-07-13T04:26:40;3.15;;;1.70;;
12852;SDS011;6495;51.808;7.478;2023-07-13T04:29:09;2.63;;;1.60;;
12852;SDS011;6495;51.808;7.478;2023-07-13T04:31:37;3.80;;;1.60;;
12852;SDS011;6495;51.808;7.478;2023-07-13T04:34:06;2.72;;;1.73;;
12852;SDS011;6495;51.808;7.478;2023-07-13T04:36:34;5.68;;;1.60;;
12852;SDS011;6495;51.808;7.478;2023-07-13T04:39:03;2.28;;;1.40;;
12852;SDS011;6495;51.808;7.478;2023-07-13T04:41:32;3.10;;;1.55;;
12852;SDS011;6495;51.808;7.478;2023-07-13T04:44:02;4.63;;;1.77;;
12852;SDS011;6495;51.808;7.478;2023-07-13T04:46:31;3.42;;;1.52;;
12852;SDS011;6495;51.808;7.478;2023-07-13T04:48:59;2.65;;;1.88;;
12852;SDS011;6495;51.808;7.478;2023-07-13T04:51:30;2.95;;;1.60;;
12852;SDS011;6495;51.808;7.478;2023-07-13T04:53:58;1.65;;;1.42;;
12852;SDS011;6495;51.808;7.478;2023-07-13T04:56:27;4.32;;;1.83;;
12852;SDS011;6495;51.808;7.478;2023-07-13T04:58:56;4.82;;;1.73;;
12852;SDS011;6495;51.808;7.478;2023-07-13T05:01:26;4.72;;;1.70;;
12852;SDS011;6495;51.808;7.478;2023-07-13T05:03:55;6.60;;;1.80;;
12852;SDS011;6495;51.808;7.478;2023-07-13T05:06:25;3.25;;;1.63;;
12852;SDS011;6495;51.808;7.478;2023-07-13T05:08:54;5.10;;;1.77;;
12852;SDS011;6495;51.808;7.478;2023-07-13T05:11:23;4.93;;;1.83;;
12852;SDS011;6495;51.808;7.478;2023-07-13T05:13:52;2.15;;;1.15;;
12852;SDS011;6495;51.808;7.478;2023-07-13T05:16:20;4.63;;;1.65;;
12852;SDS011;6495;51.808;7.478;2023-07-13T05:18:50;2.85;;;1.40;;
12852;SDS011;6495;51.808;7.478;2023-07-13T05:21:18;2.78;;;1.42;;
12852;SDS011;6495;51.808;7.478;2023-07-13T05:23:47;1.52;;;1.25;;
12852;SDS011;6495;51.808;7.478;2023-07-13T05:26:15;4.28;;;1.60;;
12852;SDS011;6495;51.808;7.478;2023-07-13T05:28:44;5.07;;;1.50;;
12852;SDS011;6495;51.808;7.478;2023-07-13T05:31:12;4.65;;;1.63;;
12852;SDS011;6495;51.808;7.478;2023-07-13T05:33:41;3.72;;;1.67;;
12852;SDS011;6495;51.808;7.478;2023-07-13T05:36:11;4.95;;;1.60;;
12852;SDS011;6495;51.808;7.478;2023-07-13T05:38:39;4.70;;;1.88;;
12852;SDS011;6495;51.808;7.478;2023-07-13T05:41:07;4.40;;;1.63;;
12852;SDS011;6495;51.808;7.478;2023-07-13T05:43:36;3.20;;;1.85;;
12852;SDS011;6495;51.808;7.478;2023-07-13T05:46:05;3.58;;;1.60;;
12852;SDS011;6495;51.808;7.478;2023-07-13T05:48:33;3.83;;;2.05;;
12852;SDS011;6495;51.808;7.478;2023-07-13T05:51:01;3.53;;;1.75;;
12852;SDS011;6495;51.808;7.478;2023-07-13T05:53:31;2.33;;;1.40;;
12852;SDS011;6495;51.808;7.478;2023-07-13T05:56:02;3.17;;;1.40;;
12852;SDS011;6495;51.808;7.478;2023-07-13T05:58:30;4.97;;;1.60;;
12852;SDS011;6495;51.808;7.478;2023-07-13T06:00:59;6.22;;;1.65;;
12852;SDS011;6495;51.808;7.478;2023-07-13T06:03:30;4.72;;;1.83;;
12852;SDS011;6495;51.808;7.478;2023-07-13T06:05:58;2.97;;;1.90;;
12852;SDS011;6495;51.808;7.478;2023-07-13T06:08:27;4.05;;;1.95;;
12852;SDS011;6495;51.808;7.478;2023-07-13T06:11:02;5.55;;;2.03;;
12852;SDS011;6495;51.808;7.478;2023-07-13T06:13:33;7.15;;;2.40;;
12852;SDS011;6495;51.808;7.478;2023-07-13T06:16:01;5.88;;;2.05;;
12852;SDS011;6495;51.808;7.478;2023-07-13T06:18:32;4.15;;;2.17;;
12852;SDS011;6495;51.808;7.478;2023-07-13T06:21:01;5.05;;;2.25;;
12852;SDS011;6495;51.808;7.478;2023-07-13T06:23:34;4.97;;;2.55;;
12852;SDS011;6495;51.808;7.478;2023-07-13T06:26:04;4.15;;;2.08;;
12852;SDS011;6495;51.808;7.478;2023-07-13T06:28:34;5.40;;;1.90;;
12852;SDS011;6495;51.808;7.478;2023-07-13T06:31:06;5.43;;;2.30;;
12852;SDS011;6495;51.808;7.478;2023-07-13T06:33:37;5.57;;;2.15;;
12852;SDS011;6495;51.808;7.478;2023-07-13T06:36:06;9.25;;;2.60;;
12852;SDS011;6495;51.808;7.478;2023-07-13T06:38:36;6.25;;;2.22;;
12852;SDS011;6495;51.808;7.478;2023-07-13T06:41:07;6.53;;;2.50;;
12852;SDS011;6495;51.808;7.478;2023-07-13T06:43:36;8.80;;;2.22;;
12852;SDS011;6495;51.808;7.478;2023-07-13T06:46:05;9.15;;;2.63;;
12852;SDS011;6495;51.808;7.478;2023-07-13T06:48:34;9.20;;;2.55;;
12852;SDS011;6495;51.808;7.478;2023-07-13T06:51:02;9.95;;;2.20;;
12852;SDS011;6495;51.808;7.478;2023-07-13T06:53:31;9.88;;;2.50;;
12852;SDS011;6495;51.808;7.478;2023-07-13T06:55:59;7.38;;;2.45;;
12852;SDS011;6495;51.808;7.478;2023-07-13T06:58:29;6.05;;;2.17;;
12852;SDS011;6495;51.808;7.478;2023-07-13T07:00:57;9.18;;;2.55;;
12852;SDS011;6495;51.808;7.478;2023-07-13T07:03:26;7.45;;;2.40;;
12852;SDS011;6495;51.808;7.478;2023-07-13T07:05:59;3.97;;;2.08;;
12852;SDS011;6495;51.808;7.478;2023-07-13T07:08:29;5.45;;;2.72;;
12852;SDS011;6495;51.808;7.478;2023-07-13T07:10:57;5.95;;;2.85;;
12852;SDS011;6495;51.808;7.478;2023-07-13T07:13:25;9.40;;;3.10;;
12852;SDS011;6495;51.808;7.478;2023-07-13T07:15:56;8.55;;;3.00;;
12852;SDS011;6495;51.808;7.478;2023-07-13T07:18:26;12.82;;;2.45;;
12852;SDS011;6495;51.808;7.478;2023-07-13T07:20:54;6.53;;;2.67;;
12852;SDS011;6495;51.808;7.478;2023-07-13T07:23:23;6.70;;;3.10;;
12852;SDS011;6495;51.808;7.478;2023-07-13T07:25:51;5.85;;;2.97;;
12852;SDS011;6495;51.808;7.478;2023-07-13T07:28:20;6.05;;;2.95;;
12852;SDS011;6495;51.808;7.478;2023-07-13T07:30:52;5.68;;;3.10;;
12852;SDS011;6495;51.808;7.478;2023-07-13T07:33:26;8.57;;;3.67;;
12852;SDS011;6495;51.808;7.478;2023-07-13T07:35:54;7.15;;;3.47;;
12852;SDS011;6495;51.808;7.478;2023-07-13T07:38:26;7.97;;;3.33;;
12852;SDS011;6495;51.808;7.478;2023-07-13T07:40:54;6.85;;;3.50;;
12852;SDS011;6495;51.808;7.478;2023-07-13T07:43:25;7.22;;;3.60;;
12852;SDS011;6495;51.808;7.478;2023-07-13T07:45:54;7.30;;;3.30;;
12852;SDS011;6495;51.808;7.478;2023-07-13T07:48:22;8.60;;;3.35;;
12852;SDS011;6495;51.808;7.478;2023-07-13T07:50:52;8.38;;;3.83;;
12852;SDS011;6495;51.808;7.478;2023-07-13T07:53:20;4.20;;;2.97;;
12852;SDS011;6495;51.808;7.478;2023-07-13T07:55:49;7.22;;;3.88;;
12852;SDS011;6495;51.808;7.478;2023-07-13T07:58:20;7.25;;;3.75;;
12852;SDS011;6495;51.808;7.478;2023-07-13T08:00:51;4.40;;;3.78;;
12852;SDS011;6495;51.808;7.478;2023-07-13T08:03:23;5.25;;;3.53;;
12852;SDS011;6495;51.808;7.478;2023-07-13T08:05:55;9.45;;;3.95;;
12852;SDS011;6495;51.808;7.478;2023-07-13T08:08:44;5.32;;;3.17;;
12852;SDS011;6495;51.808;7.478;2023-07-13T08:11:12;8.13;;;3.65;;
12852;SDS011;6495;51.808;7.478;2023-07-13T08:13:44;5.10;;;3.72;;
12852;SDS011;6495;51.808;7.478;2023-07-13T08:16:12;5.03;;;3.03;;
12852;SDS011;6495;51.808;7.478;2023-07-13T08:18:40;7.40;;;3.13;;
12852;SDS011;6495;51.808;7.478;2023-07-13T08:21:10;6.25;;;3.28;;
12852;SDS011;6495;51.808;7.478;2023-07-13T08:23:39;6.28;;;2.78;;
12852;SDS011;6495;51.808;7.478;2023-07-13T08:26:07;5.47;;;3.30;;
12852;SDS011;6495;51.808;7.478;2023-07-13T08:28:36;5.05;;;3.97;;
12852;SDS011;6495;51.808;7.478;2023-07-13T08:31:05;8.80;;;4.30;;
12852;SDS011;6495;51.808;7.478;2023-07-13T08:33:36;7.80;;;4.40;;
12852;SDS011;6495;51.808;7.478;2023-07-13T08:36:07;4.68;;;3.20;;
12852;SDS011;6495;51.808;7.478;2023-07-13T08:38:37;7.38;;;3.63;;
12852;SDS011;6495;51.808;7.478;2023-07-13T08:41:10;6.50;;;4.20;;
12852;SDS011;6495;51.808;7.478;2023-07-13T08:43:45;5.53;;;4.38;;
12852;SDS011;6495;51.808;7.478;2023-07-13T08:46:19;11.25;;;4.20;;
12852;SDS011;6495;51.808;7.478;2023-07-13T08:48:56;7.47;;;3.88;;
12852;SDS011;6495;51.808;7.478;2023-07-13T08:51:35;9.77;;;3.55;;
12852;SDS011;6495;51.808;7.478;2023-07-13T08:54:19;6.25;;;4.43;;
12852;SDS011;6495;51.808;7.478;2023-07-13T08:56:54;7.35;;;4.75;;
12852;SDS011;6495;51.808;7.478;2023-07-13T08:59:26;8.32;;;4.60;;
12852;SDS011;6495;51.808;7.478;2023-07-13T09:04:53;6.68;;;4.38;;
12852;SDS011;6495;51.808;7.478;2023-07-13T09:07:34;12.07;;;5.38;;
12852;SDS011;6495;51.808;7.478;2023-07-13T09:10:26;6.72;;;4.80;;
12852;SDS011;6495;51.808;7.478;2023-07-13T09:13:01;7.45;;;5.35;;
12852;SDS011;6495;51.808;7.478;2023-07-13T09:15:47;12.15;;;5.15;;
12852;SDS011;6495;51.808;7.478;2023-07-13T09:18:19;7.00;;;4.57;;
12852;SDS011;6495;51.808;7.478;2023-07-13T09:20:57;8.27;;;4.63;;
12852;SDS011;6495;51.808;7.478;2023-07-13T09:23:31;9.23;;;5.78;;
12852;SDS011;6495;51.808;7.478;2023-07-13T09:26:02;10.38;;;5.53;;
12852;SDS011;6495;51.808;7.478;2023-07-13T09:28:38;8.30;;;5.50;;
12852;SDS011;6495;51.808;7.478;2023-07-13T09:31:11;9.48;;;4.55;;
12852;SDS011;6495;51.808;7.478;2023-07-13T09:33:45;8.10;;;5.30;;
12852;SDS011;6495;51.808;7.478;2023-07-13T09:36:17;7.63;;;4.88;;
12852;SDS011;6495;51.808;7.478;2023-07-13T09:38:53;8.63;;;5.20;;
12852;SDS011;6495;51.808;7.478;2023-07-13T09:41:32;7.47;;;4.68;;
12852;SDS011;6495;51.808;7.478;2023-07-13T09:44:09;7.20;;;5.15;;
12852;SDS011;6495;51.808;7.478;2023-07-13T09:46:43;7.20;;;4.80;;
12852;SDS011;6495;51.808;7.478;2023-07-13T09:49:14;7.53;;;4.22;;
12852;SDS011;6495;51.808;7.478;2023-07-13T09:51:42;7.07;;;3.92;;
12852;SDS011;6495;51.808;7.478;2023-07-13T09:54:17;7.35;;;3.50;;
12852;SDS011;6495;51.808;7.478;2023-07-13T09:56:50;6.07;;;3.65;;
12852;SDS011;6495;51.808;7.478;2023-07-13T09:59:24;5.95;;;4.00;;
12852;SDS011;6495;51.808;7.478;2023-07-13T10:01:57;7.10;;;3.55;;
12852;SDS011;6495;51.808;7.478;2023-07-13T10:04:27;12.57;;;4.07;;
12852;SDS011;6495;51.808;7.478;2023-07-13T10:07:05;6.22;;;4.18;;
12852;SDS011;6495;51.808;7.478;2023-07-13T10:09:54;9.40;;;3.70;;
12852;SDS011;6495;51.808;7.478;2023-07-13T10:12:24;5.25;;;3.78;;
12852;SDS011;6495;51.808;7.478;2023-07-13T10:14:54;6.70;;;3.72;;
12852;SDS011;6495;51.808;7.478;2023-07-13T10:17:46;6.85;;;3.90;;
12852;SDS011;6495;51.808;7.478;2023-07-13T10:20:16;4.85;;;4.05;;
12852;SDS011;6495;51.808;7.478;2023-07-13T10:22:49;7.90;;;4.88;;
12852;SDS011;6495;51.808;7.478;2023-07-13T10:25:25;7.30;;;4.43;;
12852;SDS011;6495;51.808;7.478;2023-07-13T10:27:58;5.80;;;4.88;;
12852;SDS011;6495;51.808;7.478;2023-07-13T10:30:39;6.68;;;4.78;;
12852;SDS011;6495;51.808;7.478;2023-07-13T10:33:13;6.18;;;4.45;;
12852;SDS011;6495;51.808;7.478;2023-07-13T10:35:43;6.45;;;5.80;;
12852;SDS011;6495;51.808;7.478;2023-07-13T10:38:14;8.57;;;5.72;;
12852;SDS011;6495;51.808;7.478;2023-07-13T10:40:52;6.45;;;5.80;;
12852;SDS011;6495;51.808;7.478;2023-07-13T10:43:28;7.18;;;5.60;;
12852;SDS011;6495;51.808;7.478;2023-07-13T10:46:03;7.80;;;5.10;;
12852;SDS011;6495;51.808;7.478;2023-07-13T10:48:34;4.93;;;4.00;;
12852;SDS011;6495;51.808;7.478;2023-07-13T10:51:06;4.55;;;3.95;;
12852;SDS011;6495;51.808;7.478;2023-07-13T10:53:38;3.83;;;3.45;;
12852;SDS011;6495;51.808;7.478;2023-07-13T10:56:15;5.18;;;3.60;;
12852;SDS011;6495;51.808;7.478;2023-07-13T10:59:02;6.32;;;3.17;;
12852;SDS011;6495;51.808;7.478;2023-07-13T11:01:46;6.05;;;2.85;;
12852;SDS011;6495;51.808;7.478;2023-07-13T11:04:22;5.78;;;3.15;;
12852;SDS011;6495;51.808;7.478;2023-07-13T11:06:56;3.67;;;2.60;;
12852;SDS011;6495;51.808;7.478;2023-07-13T11:09:37;6.60;;;2.78;;
12852;SDS011;6495;51.808;7.478;2023-07-13T11:12:08;5.85;;;2.30;;
12852;SDS011;6495;51.808;7.478;2023-07-13T11:17:47;2.80;;;2.10;;
12852;SDS011;6495;51.808;7.478;2023-07-13T11:20:22;5.05;;;2.13;;
12852;SDS011;6495;51.808;7.478;2023-07-13T11:23:15;2.80;;;1.92;;
12852;SDS011;6495;51.808;7.478;2023-07-13T11:25:57;3.63;;;1.80;;
12852;SDS011;6495;51.808;7.478;2023-07-13T11:28:30;3.58;;;1.98;;
12852;SDS011;6495;51.808;7.478;2023-07-13T11:31:03;4.20;;;2.03;;
12852;SDS011;6495;51.808;7.478;2023-07-13T11:33:53;5.40;;;2.10;;
12852;SDS011;6495;51.808;7.478;2023-07-13T11:36:29;3.28;;;1.88;;
12852;SDS011;6495;51.808;7.478;2023-07-13T11:39:11;3.70;;;1.60;;
12852;SDS011;6495;51.808;7.478;2023-07-13T11:41:49;6.22;;;2.30;;
12852;SDS011;6495;51.808;7.478;2023-07-13T11:44:22;4.55;;;2.15;;
12852;SDS011;6495;51.808;7.478;2023-07-13T11:46:56;3.55;;;1.85;;
12852;SDS011;6495;51.808;7.478;2023-07-13T11:49:31;5.03;;;2.00;;
12852;SDS011;6495;51.808;7.478;2023-07-13T11:52:09;4.07;;;1.90;;
12852;SDS011;6495;51.808;7.478;2023-07-13T11:54:43;3.40;;;1.95;;
12852;SDS011;6495;51.808;7.478;2023-07-13T11:57:20;3.35;;;1.83;;
12852;SDS011;6495;51.808;7.478;2023-07-13T11:59:55;3.33;;;1.70;;
12852;SDS011;6495;51.808;7.478;2023-07-13T12:02:28;3.08;;;1.90;;
12852;SDS011;6495;51.808;7.478;2023-07-13T12:05:00;3.58;;;1.92;;
12852;SDS011;6495;51.808;7.478;2023-07-13T12:07:32;3.40;;;2.03;;
12852;SDS011;6495;51.808;7.478;2023-07-13T12:10:01;3.97;;;1.88;;
12852;SDS011;6495;51.808;7.478;2023-07-13T12:12:31;3.85;;;2.03;;
12852;SDS011;6495;51.808;7.478;2023-07-13T12:14:59;4.70;;;2.05;;
12852;SDS011;6495;51.808;7.478;2023-07-13T12:17:29;2.55;;;1.75;;
12852;SDS011;6495;51.808;7.478;2023-07-13T12:19:57;3.90;;;2.08;;
12852;SDS011;6495;51.808;7.478;2023-07-13T12:22:26;3.72;;;2.10;;
12852;SDS011;6495;51.808;7.478;2023-07-13T12:24:55;3.65;;;1.98;;
12852;SDS011;6495;51.808;7.478;2023-07-13T12:27:25;3.30;;;1.92;;
12852;SDS011;6495;51.808;7.478;2023-07-13T12:29:58;4.20;;;1.70;;
12852;SDS011;6495;51.808;7.478;2023-07-13T12:32:30;1.95;;;1.73;;
12852;SDS011;6495;51.808;7.478;2023-07-13T12:35:06;6.93;;;2.17;;
12852;SDS011;6495;51.808;7.478;2023-07-13T12:37:46;5.65;;;2.00;;
12852;SDS011;6495;51.808;7.478;2023-07-13T12:40:15;4.88;;;2.28;;
12852;SDS011;6495;51.808;7.478;2023-07-13T12:42:46;3.97;;;1.70;;
12852;SDS011;6495;51.808;7.478;2023-07-13T12:45:18;4.90;;;2.05;;
12852;SDS011;6495;51.808;7.478;2023-07-13T12:47:52;4.18;;;2.22;;
12852;SDS011;6495;51.808;7.478;2023-07-13T12:50:29;3.83;;;1.63;;
12852;SDS011;6495;51.808;7.478;2023-07-13T12:55:59;3.60;;;1.70;;
12852;SDS011;6495;51.808;7.478;2023-07-13T12:58:31;7.45;;;1.95;;
12852;SDS011;6495;51.808;7.478;2023-07-13T13:01:07;4.80;;;1.77;;
12852;SDS011;6495;51.808;7.478;2023-07-13T13:03:45;3.22;;;1.90;;
12852;SDS011;6495;51.808;7.478;2023-07-13T13:06:22;4.13;;;2.13;;
12852;SDS011;6495;51.808;7.478;2023-07-13T13:08:54;3.03;;;1.67;;
12852;SDS011;6495;51.808;7.478;2023-07-13T13:11:25;2.65;;;1.92;;
12852;SDS011;6495;51.808;7.478;2023-07-13T13:13:56;3.85;;;2.20;;
12852;SDS011;6495;51.808;7.478;2023-07-13T13:16:29;6.60;;;2.60;;
12852;SDS011;6495;51.808;7.478;2023-07-13T13:19:05;4.65;;;2.47;;
12852;SDS011;6495;51.808;7.478;2023-07-13T13:21:42;4.50;;;2.50;;
12852;SDS011;6495;51.808;7.478;2023-07-13T13:24:13;2.28;;;1.98;;
12852;SDS011;6495;51.808;7.478;2023-07-13T13:26:44;3.75;;;2.10;;
12852;SDS011;6495;51.808;7.478;2023-07-13T13:29:15;3.35;;;1.65;;
12852;SDS011;6495;51.808;7.478;2023-07-13T13:31:46;2.35;;;1.67;;
12852;SDS011;6495;51.808;7.478;2023-07-13T13:34:17;2.90;;;1.85;;
12852;SDS011;6495;51.808;7.478;2023-07-13T13:36:49;3.42;;;2.03;;
12852;SDS011;6495;51.808;7.478;2023-07-13T13:39:25;3.72;;;2.17;;
12852;SDS011;6495;51.808;7.478;2023-07-13T13:42:00;4.93;;;2.67;;
12852;SDS011;6495;51.808;7.478;2023-07-13T13:44:28;2.80;;;2.33;;
12852;SDS011;6495;51.808;7.478;2023-07-13T13:46:57;3.28;;;2.65;;
12852;SDS011;6495;51.808;7.478;2023-07-13T13:49:27;3.83;;;2.90;;
12852;SDS011;6495;51.808;7.478;2023-07-13T13:51:57;5.20;;;2.60;;
12852;SDS011;6495;51.808;7.478;2023-07-13T13:54:26;4.72;;;2.65;;
12852;SDS011;6495;51.808;7.478;2023-07-13T13:56:55;5.57;;;2.20;;
12852;SDS011;6495;51.808;7.478;2023-07-13T13:59:26;3.42;;;2.25;;
12852;SDS011;6495;51.808;7.478;2023-07-13T14:01:54;3.97;;;2.10;;
12852;SDS011;6495;51.808;7.478;2023-07-13T14:04:27;2.53;;;1.90;;
12852;SDS011;6495;51.808;7.478;2023-07-13T14:06:56;3.55;;;2.08;;
12852;SDS011;6495;51.808;7.478;2023-07-13T14:09:24;2.13;;;1.92;;
12852;SDS011;6495;51.808;7.478;2023-07-13T14:11:53;1.67;;;1.58;;
12852;SDS011;6495;51.808;7.478;2023-07-13T14:14:23;2.00;;;1.75;;
12852;SDS011;6495;51.808;7.478;2023-07-13T14:16:54;2.72;;;1.85;;
12852;SDS011;6495;51.808;7.478;2023-07-13T14:19:23;3.90;;;1.92;;
12852;SDS011;6495;51.808;7.478;2023-07-13T14:21:54;2.40;;;1.98;;
12852;SDS011;6495;51.808;7.478;2023-07-13T14:24:23;4.10;;;1.80;;
12852;SDS011;6495;51.808;7.478;2023-07-13T14:26:51;3.00;;;1.88;;
12852;SDS011;6495;51.808;7.478;2023-07-13T14:29:19;2.97;;;1.70;;
12852;SDS011;6495;51.808;7.478;2023-07-13T14:31:50;4.00;;;1.80;;
12852;SDS011;6495;51.808;7.478;2023-07-13T14:34:19;2.08;;;1.88;;
12852;SDS011;6495;51.808;7.478;2023-07-13T14:36:49;4.03;;;2.00;;
12852;SDS011;6495;51.808;7.478;2023-07-13T14:39:20;3.92;;;2.00;;
12852;SDS011;6495;51.808;7.478;2023-07-13T14:41:51;2.80;;;1.77;;
12852;SDS011;6495;51.808;7.478;2023-07-13T14:44:24;1.98;;;1.80;;
12852;SDS011;6495;51.808;7.478;2023-07-13T14:46:56;2.28;;;2.08;;
12852;SDS011;6495;51.808;7.478;2023-07-13T14:49:28;2.10;;;1.85;;
12852;SDS011;6495;51.808;7.478;2023-07-13T14:51:59;3.17;;;2.10;;
12852;SDS011;6495;51.808;7.478;2023-07-13T14:54:34;4.75;;;1.77;;
12852;SDS011;6495;51.808;7.478;2023-07-13T14:57:08;4.35;;;1.98;;
12852;SDS011;6495;51.808;7.478;2023-07-13T14:59:39;3.83;;;2.10;;
12852;SDS011;6495;51.808;7.478;2023-07-13T15:02:14;1.70;;;1.60;;
12852;SDS011;6495;51.808;7.478;2023-07-13T15:04:51;3.08;;;1.92;;
12852;SDS011;6495;51.808;7.478;2023-07-13T15:07:20;2.20;;;1.70;;
12852;SDS011;6495;51.808;7.478;2023-07-13T15:09:51;3.42;;;2.05;;
12852;SDS011;6495;51.808;7.478;2023-07-13T15:12:19;2.88;;;1.95;;
12852;SDS011;6495;51.808;7.478;2023-07-13T15:14:49;2.20;;;1.55;;
12852;SDS011;6495;51.808;7.478;2023-07-13T15:17:25;2.88;;;1.98;;
12852;SDS011;6495;51.808;7.478;2023-07-13T15:20:04;4.18;;;2.38;;
12852;SDS011;6495;51.808;7.478;2023-07-13T15:22:46;3.90;;;1.75;;
12852;SDS011;6495;51.808;7.478;2023-07-13T15:25:17;2.38;;;1.92;;
12852;SDS011;6495;51.808;7.478;2023-07-13T15:27:49;2.90;;;1.92;;
12852;SDS011;6495;51.808;7.478;2023-07-13T15:30:17;2.58;;;2.00;;
12852;SDS011;6495;51.808;7.478;2023-07-13T15:32:46;2.80;;;2.53;;
12852;SDS011;6495;51.808;7.478;2023-07-13T15:35:17;4.00;;;2.40;;